Time;durP1;ratioP1;P1;durP2;ratioP2;P2;SDS_P1;SDS_P2;PMS_P1;PMS_P2;Temp;Humidity;BMP_temperature;BMP_pressure;BME280_temperature;BME280_humidity;BME280_pressure;Samples;Min_cycle;Max_cycle;Signal;HPM_P1;HPM_P2
2021/08/17 00:00:26;;;;;;;1999.90;999.90;;;12.70;99.90;;;;;;5034583;28;20410;-66
2021/08/17 00:02:52;;;;;;;1999.90;999.90;;;12.70;99.90;;;;;;5034376;28;20208;-66
2021/08/17 00:05:17;;;;;;;1999.90;999.90;;;12.60;99.90;;;;;;5034230;28;20168;-67
2021/08/17 00:07:43;;;;;;;1999.90;999.90;;;12.70;99.90;;;;;;5034372;28;20721;-66
2021/08/17 00:10:09;;;;;;;1999.90;999.90;;;12.70;99.90;;;;;;5034322;28;20173;-66
2021/08/17 00:12:35;;;;;;;1999.90;999.90;;;12.70;99.90;;;;;;5034226;28;20668;-65
2021/08/17 00:15:01;;;;;;;1999.90;999.90;;;12.70;99.90;;;;;;5034039;28;20409;-66
2021/08/17 00:17:27;;;;;;;1999.90;999.90;;;12.70;99.90;;;;;;5034246;28;20195;-66
2021/08/17 00:19:53;;;;;;;1999.90;999.90;;;12.70;99.90;;;;;;5034242;28;20405;-66
2021/08/17 00:22:22;;;;;;;1999.90;999.90;;;12.70;99.90;;;;;;5034042;28;20291;-66
2021/08/17 00:24:52;;;;;;;1999.90;999.90;;;12.70;99.90;;;;;;5033947;28;20180;-66
2021/08/17 00:27:17;;;;;;;1999.90;999.90;;;12.70;99.90;;;;;;5034108;28;20403;-66
2021/08/17 00:29:43;;;;;;;1999.90;999.90;;;12.70;99.90;;;;;;5034047;28;20411;-66
2021/08/17 00:32:09;;;;;;;1999.90;999.90;;;12.70;99.90;;;;;;5033976;28;20176;-66
2021/08/17 00:34:35;;;;;;;1999.90;999.90;;;12.70;99.90;;;;;;5033577;28;20855;-66
2021/08/17 00:37:00;;;;;;;1999.90;999.90;;;12.70;99.90;;;;;;5033850;28;20689;-66
2021/08/17 00:39:27;;;;;;;1999.90;999.90;;;12.70;99.90;;;;;;5033945;28;20238;-67
2021/08/17 00:41:53;;;;;;;1999.90;999.90;;;12.70;99.90;;;;;;5033662;28;20283;-66
2021/08/17 00:44:20;;;;;;;1999.90;999.90;;;12.70;99.90;;;;;;5033451;28;20518;-67
2021/08/17 00:46:46;;;;;;;1999.90;999.90;;;12.80;99.90;;;;;;5033674;28;20806;-66
2021/08/17 00:49:12;;;;;;;1999.90;999.90;;;12.90;99.90;;;;;;5033602;28;20403;-66
2021/08/17 00:51:37;;;;;;;1999.90;999.90;;;12.90;99.90;;;;;;5033519;28;20180;-66
2021/08/17 00:54:03;;;;;;;1999.90;999.90;;;12.90;99.90;;;;;;5032973;28;20216;-66
2021/08/17 00:56:29;;;;;;;1999.90;999.90;;;12.80;99.90;;;;;;5033453;28;20207;-68
2021/08/17 00:58:55;;;;;;;1999.90;999.90;;;12.90;99.90;;;;;;5033468;28;20630;-66
2021/08/17 01:01:21;;;;;;;1999.90;999.90;;;12.80;99.90;;;;;;5033293;28;20462;-66
2021/08/17 01:03:46;;;;;;;1999.90;999.90;;;12.80;99.90;;;;;;5033085;28;20532;-66
2021/08/17 01:06:12;;;;;;;1999.90;999.90;;;12.90;99.90;;;;;;5033232;28;20412;-66
2021/08/17 01:08:38;;;;;;;1999.90;999.90;;;12.90;99.90;;;;;;5032958;28;20265;-66
2021/08/17 01:11:04;;;;;;;1999.90;999.90;;;12.90;99.90;;;;;;5033300;28;20578;-66
2021/08/17 01:13:30;;;;;;;1999.90;999.90;;;13.00;99.90;;;;;;5033081;28;20203;-67
2021/08/17 01:15:57;;;;;;;1999.90;999.90;;;13.00;99.90;;;;;;5032906;28;20462;-67
2021/08/17 01:18:23;;;;;;;1999.90;999.90;;;13.00;99.90;;;;;;5032986;28;20512;-66
2021/08/17 01:20:51;;;;;;;1999.90;999.90;;;13.00;99.90;;;;;;5033274;28;20492;-66
2021/08/17 01:23:20;;;;;;;1999.90;999.90;;;13.10;99.90;;;;;;5032821;28;20427;-67
2021/08/17 01:25:47;;;;;;;1999.90;999.90;;;13.10;99.90;;;;;;5032676;28;20438;-67
2021/08/17 01:28:13;;;;;;;1999.90;999.90;;;13.10;99.90;;;;;;5033023;28;20766;-67
2021/08/17 01:30:38;;;;;;;1999.90;999.90;;;13.20;99.90;;;;;;5032920;28;20408;-66
2021/08/17 01:33:04;;;;;;;1999.90;999.90;;;13.20;99.90;;;;;;5032715;28;20438;-67
2021/08/17 01:35:30;;;;;;;1999.90;999.90;;;13.20;99.90;;;;;;5032525;28;20169;-67
2021/08/17 01:37:56;;;;;;;1999.90;999.90;;;13.20;99.90;;;;;;5032836;28;20175;-68
2021/08/17 01:40:21;;;;;;;1999.90;999.90;;;13.20;99.90;;;;;;5032645;28;20525;-67
2021/08/17 01:42:50;;;;;;;1999.90;999.90;;;13.10;99.90;;;;;;5032520;28;20295;-67
2021/08/17 01:45:20;;;;;;;1999.90;999.90;;;13.10;99.90;;;;;;5032346;28;20176;-67
2021/08/17 01:47:50;;;;;;;1999.90;999.90;;;13.10;99.90;;;;;;5032455;28;20415;-67
2021/08/17 01:50:17;;;;;;;1999.90;999.90;;;13.10;99.90;;;;;;5032640;28;20447;-68
2021/08/17 01:52:42;;;;;;;1999.90;999.90;;;13.10;99.90;;;;;;5032326;28;20458;-67
2021/08/17 01:55:09;;;;;;;1999.90;999.90;;;13.10;99.90;;;;;;5032222;28;20446;-68
2021/08/17 01:57:37;;;;;;;1999.90;999.90;;;13.10;99.90;;;;;;5032413;28;20312;-67
2021/08/17 02:00:06;;;;;;;1999.90;999.90;;;13.00;99.90;;;;;;5032386;28;20404;-67
2021/08/17 02:02:31;;;;;;;1999.90;999.90;;;13.00;99.90;;;;;;5014451;28;20862;-67
2021/08/17 02:04:57;;;;;;;1999.90;999.90;;;13.00;99.90;;;;;;5032012;28;20419;-67
2021/08/17 02:07:22;;;;;;;1999.90;999.90;;;12.90;99.90;;;;;;5032213;28;20166;-67
2021/08/17 02:09:48;;;;;;;1999.90;999.90;;;12.90;99.90;;;;;;5032230;28;20530;-67
2021/08/17 02:12:14;;;;;;;1999.90;999.90;;;12.90;99.90;;;;;;5032247;28;20211;-67
2021/08/17 02:14:39;;;;;;;1999.90;999.90;;;12.80;99.90;;;;;;5031757;28;20200;-66
2021/08/17 02:17:05;;;;;;;1999.90;999.90;;;12.80;99.90;;;;;;5032077;28;20172;-67
2021/08/17 02:19:30;;;;;;;1999.90;999.90;;;12.80;99.90;;;;;;5031418;28;20176;-68
2021/08/17 02:21:56;;;;;;;1999.90;999.90;;;12.80;99.90;;;;;;5032078;28;20333;-67
2021/08/17 02:24:22;;;;;;;1999.90;999.90;;;12.80;99.90;;;;;;5031712;28;20191;-67
2021/08/17 02:26:47;;;;;;;1999.90;999.90;;;12.70;99.90;;;;;;5031998;28;20678;-67
2021/08/17 02:29:13;;;;;;;1999.90;999.90;;;12.70;99.90;;;;;;5031962;28;20243;-68
2021/08/17 02:31:38;;;;;;;1999.90;999.90;;;12.70;99.90;;;;;;5031928;28;20176;-67
2021/08/17 02:34:04;;;;;;;1999.90;999.90;;;12.70;99.90;;;;;;5031618;28;20199;-67
2021/08/17 02:36:30;;;;;;;1999.90;999.90;;;12.70;99.90;;;;;;5031747;28;20180;-67
2021/08/17 02:38:56;;;;;;;1999.90;999.90;;;12.70;99.90;;;;;;5031892;28;20243;-67
2021/08/17 02:41:21;;;;;;;1999.90;999.90;;;12.60;99.90;;;;;;5031753;28;20447;-67
2021/08/17 02:43:47;;;;;;;1999.90;999.90;;;12.60;99.90;;;;;;5031496;28;20256;-68
2021/08/17 02:46:12;;;;;;;1999.90;999.90;;;12.70;99.90;;;;;;5037602;28;20168;-68
2021/08/17 02:48:38;;;;;;;1999.90;999.90;;;12.70;99.90;;;;;;5024234;28;20181;-68
2021/08/17 02:51:04;;;;;;;1999.90;999.90;;;12.70;99.90;;;;;;5026410;28;20251;-68
2021/08/17 02:53:29;;;;;;;1999.90;999.90;;;12.70;99.90;;;;;;5029644;28;20208;-68
2021/08/17 02:55:55;;;;;;;1999.90;999.90;;;12.70;99.90;;;;;;5031850;28;20203;-68
2021/08/17 02:58:20;;;;;;;1999.90;999.90;;;12.70;99.90;;;;;;5032178;28;20718;-68
2021/08/17 03:00:46;;;;;;;1999.90;999.90;;;12.70;99.90;;;;;;5031920;28;20238;-68
2021/08/17 03:03:12;;;;;;;1999.90;999.90;;;12.60;99.90;;;;;;5032303;28;20208;-68
2021/08/17 03:05:38;;;;;;;1999.90;999.90;;;12.60;99.90;;;;;;5031783;28;20188;-68
2021/08/17 03:08:04;;;;;;;1999.90;999.90;;;12.60;99.90;;;;;;5032239;28;20223;-68
2021/08/17 03:10:33;;;;;;;1999.90;999.90;;;12.60;99.90;;;;;;5032017;28;20411;-68
2021/08/17 03:12:59;;;;;;;1999.90;999.90;;;12.60;99.90;;;;;;5031624;28;20454;-69
2021/08/17 03:15:25;;;;;;;1999.90;999.90;;;12.70;99.90;;;;;;5031554;28;20882;-69
2021/08/17 03:17:51;;;;;;;1999.90;999.90;;;12.70;99.90;;;;;;5031676;28;20908;-68
2021/08/17 03:20:18;;;;;;;1999.90;999.90;;;12.70;99.90;;;;;;5031736;28;20419;-69
2021/08/17 03:22:44;;;;;;;1999.90;999.90;;;12.70;99.90;;;;;;5031490;28;21075;-68
2021/08/17 03:25:12;;;;;;;1999.90;999.90;;;12.70;99.90;;;;;;5031332;28;20439;-69
2021/08/17 03:27:39;;;;;;;1999.90;999.90;;;12.70;99.90;;;;;;5031639;28;20203;-69
2021/08/17 03:30:13;;;;;;;1999.90;999.90;;;12.70;99.90;;;;;;5032679;28;20402;-69
2021/08/17 03:32:39;;;;;;;1999.90;999.90;;;12.70;99.90;;;;;;5035081;28;20406;-68
2021/08/17 03:35:06;;;;;;;1999.90;999.90;;;12.70;99.90;;;;;;5034733;28;20490;-69
2021/08/17 03:37:32;;;;;;;1999.90;999.90;;;12.70;99.90;;;;;;5034955;28;20426;-68
2021/08/17 03:39:57;;;;;;;1999.90;999.90;;;12.70;99.90;;;;;;5035040;28;20403;-69
2021/08/17 03:42:23;;;;;;;1999.90;999.90;;;12.70;99.90;;;;;;5034796;28;20204;-68
2021/08/17 03:44:49;;;;;;;1999.90;999.90;;;12.70;99.90;;;;;;5034668;28;20168;-69
2021/08/17 03:47:14;;;;;;;1999.90;999.90;;;12.70;99.90;;;;;;5035296;28;20171;-69
2021/08/17 03:49:40;;;;;;;1999.90;999.90;;;12.70;99.90;;;;;;5034878;28;20256;-68
2021/08/17 03:52:06;;;;;;;1999.90;999.90;;;12.70;99.90;;;;;;5034755;28;20653;-69
2021/08/17 03:54:31;;;;;;;1999.90;999.90;;;12.70;99.90;;;;;;5034420;28;20197;-69
2021/08/17 03:56:57;;;;;;;1999.90;999.90;;;12.80;99.90;;;;;;5034870;28;20191;-69
2021/08/17 03:59:23;;;;;;;1999.90;999.90;;;12.80;99.90;;;;;;5034992;28;20585;-69
2021/08/17 04:01:48;;;;;;;1999.90;999.90;;;12.80;99.90;;;;;;5035137;28;20206;-69
2021/08/17 04:04:14;;;;;;;1999.90;999.90;;;12.80;99.90;;;;;;5035017;28;20199;-69
2021/08/17 04:06:40;;;;;;;1999.90;999.90;;;12.80;99.90;;;;;;5035608;28;20215;-68
2021/08/17 04:09:05;;;;;;;1999.90;999.90;;;12.80;99.90;;;;;;5035178;28;20187;-69
2021/08/17 04:11:31;;;;;;;1999.90;999.90;;;12.80;99.90;;;;;;5035487;28;20182;-69
2021/08/17 04:13:56;;;;;;;1999.90;999.90;;;12.80;99.90;;;;;;5035102;28;20253;-69
2021/08/17 04:16:22;;;;;;;1999.90;999.90;;;12.80;99.90;;;;;;5035205;28;20177;-69
2021/08/17 04:18:47;;;;;;;1999.90;999.90;;;12.70;99.90;;;;;;5035115;28;20180;-68
2021/08/17 04:21:13;;;;;;;1999.90;999.90;;;12.80;99.90;;;;;;5035085;28;20219;-69
2021/08/17 04:23:39;;;;;;;1999.90;999.90;;;12.80;99.90;;;;;;5034648;28;20279;-69
2021/08/17 04:26:04;;;;;;;1999.90;999.90;;;12.80;99.90;;;;;;5034748;28;20184;-69
2021/08/17 04:28:31;;;;;;;1999.90;999.90;;;12.80;99.90;;;;;;5034897;28;20247;-69
2021/08/17 04:30:57;;;;;;;1999.90;999.90;;;12.80;99.90;;;;;;5034571;28;20173;-69
2021/08/17 04:33:23;;;;;;;1999.90;999.90;;;12.80;99.90;;;;;;5034355;28;20526;-69
2021/08/17 04:35:48;;;;;;;1999.90;999.90;;;12.80;99.90;;;;;;5034094;28;20173;-69
2021/08/17 04:38:14;;;;;;;1999.90;999.90;;;12.80;99.90;;;;;;5034277;28;20172;-69
2021/08/17 04:40:39;;;;;;;1999.90;999.90;;;12.90;99.90;;;;;;5034294;28;20195;-69
2021/08/17 04:43:05;;;;;;;1999.90;999.90;;;12.90;99.90;;;;;;5033491;28;20211;-69
2021/08/17 04:45:30;;;;;;;1999.90;999.90;;;12.90;99.90;;;;;;5033726;28;20170;-69
2021/08/17 04:47:56;;;;;;;1999.90;999.90;;;12.90;99.90;;;;;;5034027;28;20649;-69
2021/08/17 04:50:22;;;;;;;1999.90;999.90;;;12.90;99.90;;;;;;5033935;28;20179;-69
2021/08/17 04:52:48;;;;;;;1999.90;999.90;;;13.00;99.90;;;;;;5033637;28;20230;-69
2021/08/17 04:55:14;;;;;;;1999.90;999.90;;;13.00;99.90;;;;;;5033538;28;20547;-69
2021/08/17 04:57:47;;;;;;;1999.90;999.90;;;13.00;99.90;;;;;;5033477;28;20498;-70
2021/08/17 05:00:14;;;;;;;1999.90;999.90;;;13.10;99.90;;;;;;5033419;28;20433;-69
2021/08/17 05:02:39;;;;;;;1999.90;999.90;;;13.10;99.90;;;;;;5033325;28;20932;-69
2021/08/17 05:05:05;;;;;;;1999.90;999.90;;;13.10;99.90;;;;;;5033118;28;20489;-69
2021/08/17 05:07:31;;;;;;;1999.90;999.90;;;13.20;99.90;;;;;;5033280;28;20164;-69
2021/08/17 05:09:58;;;;;;;1999.90;999.90;;;13.30;99.90;;;;;;5033272;28;20184;-69
2021/08/17 05:12:24;;;;;;;1999.90;999.90;;;13.30;99.90;;;;;;5033195;28;20180;-68
2021/08/17 05:14:49;;;;;;;1999.90;999.90;;;13.40;99.90;;;;;;5032936;28;20437;-68
2021/08/17 05:17:15;;;;;;;1999.90;999.90;;;13.40;99.90;;;;;;5033976;28;20180;-68
2021/08/17 05:19:40;;;;;;;1999.90;999.90;;;13.50;99.90;;;;;;5033742;28;20178;-68
2021/08/17 05:22:06;;;;;;;1999.90;999.90;;;13.60;99.90;;;;;;5033808;28;20200;-68
2021/08/17 05:24:31;;;;;;;1999.90;999.90;;;13.60;99.90;;;;;;5033610;28;20202;-68
2021/08/17 05:26:57;;;;;;;1999.90;999.90;;;13.60;99.90;;;;;;5033886;28;20533;-68
2021/08/17 05:29:23;;;;;;;1999.90;999.90;;;13.60;99.90;;;;;;5034030;28;20243;-68
2021/08/17 05:31:48;;;;;;;1999.90;999.90;;;13.60;99.90;;;;;;5034054;28;20185;-68
2021/08/17 05:34:14;;;;;;;1999.90;999.90;;;13.70;99.90;;;;;;5033978;28;20287;-68
2021/08/17 05:36:39;;;;;;;1999.90;999.90;;;13.80;99.90;;;;;;5033960;28;20176;-68
2021/08/17 05:39:05;;;;;;;1999.90;999.90;;;13.70;99.90;;;;;;5034328;28;20181;-68
2021/08/17 05:41:31;;;;;;;1999.90;999.90;;;13.80;99.90;;;;;;5033671;28;20200;-68
2021/08/17 05:43:56;;;;;;;1999.90;999.90;;;13.90;99.90;;;;;;5033546;28;20191;-68
2021/08/17 05:46:22;;;;;;;1999.90;999.90;;;14.00;99.90;;;;;;5033768;28;20300;-68
2021/08/17 05:48:47;;;;;;;1999.90;999.90;;;14.00;99.90;;;;;;5034074;28;20173;-68
2021/08/17 05:51:13;;;;;;;1999.90;999.90;;;14.10;99.90;;;;;;5033532;28;20674;-67
2021/08/17 05:53:39;;;;;;;1999.90;999.90;;;14.10;99.90;;;;;;5031302;28;20210;-67
2021/08/17 05:56:04;;;;;;;1999.90;999.90;;;14.20;99.90;;;;;;5032321;28;20177;-67
2021/08/17 05:58:30;;;;;;;1999.90;999.90;;;14.30;99.90;;;;;;5032404;28;20546;-67
2021/08/17 06:00:56;;;;;;;1999.90;999.90;;;14.30;99.90;;;;;;5032312;28;20662;-67
2021/08/17 06:03:21;;;;;;;1999.90;999.90;;;14.40;99.90;;;;;;5032274;28;20266;-67
2021/08/17 06:05:47;;;;;;;1999.90;999.90;;;14.40;99.90;;;;;;5032075;28;20581;-67
2021/08/17 06:08:12;;;;;;;1999.90;999.90;;;14.40;99.90;;;;;;5032194;28;20172;-67
2021/08/17 06:10:38;;;;;;;1999.90;999.90;;;14.50;99.90;;;;;;5032423;28;20551;-67
2021/08/17 06:13:04;;;;;;;1999.90;999.90;;;14.60;99.90;;;;;;5032269;28;20194;-67
2021/08/17 06:15:29;;;;;;;1999.90;999.90;;;14.70;99.90;;;;;;5031990;28;20205;-67
2021/08/17 06:18:01;;;;;;;1999.90;999.90;;;14.70;99.90;;;;;;5032409;28;20182;-67
2021/08/17 06:20:27;;;;;;;1999.90;999.90;;;14.80;99.90;;;;;;5032063;28;20187;-68
2021/08/17 06:22:53;;;;;;;1999.90;999.90;;;14.90;99.90;;;;;;5031879;28;20465;-67
2021/08/17 06:25:18;;;;;;;1999.90;999.90;;;15.00;99.90;;;;;;5031802;28;20406;-67
2021/08/17 06:27:44;;;;;;;1999.90;999.90;;;15.10;99.90;;;;;;5032038;28;20165;-67
2021/08/17 06:30:10;;;;;;;1999.90;999.90;;;15.10;99.90;;;;;;5032004;28;20161;-67
2021/08/17 06:32:35;;;;;;;1999.90;999.90;;;15.20;99.90;;;;;;5031869;28;20180;-67
2021/08/17 06:35:01;;;;;;;1999.90;999.90;;;15.10;99.90;;;;;;5031659;28;20173;-68
2021/08/17 06:37:27;;;;;;;1999.90;999.90;;;15.10;99.90;;;;;;5031834;28;20202;-68
2021/08/17 06:39:53;;;;;;;1999.90;999.90;;;15.20;99.90;;;;;;5031888;28;20496;-68
2021/08/17 06:42:18;;;;;;;1999.90;999.90;;;15.20;99.90;;;;;;5031931;28;20206;-67
2021/08/17 06:44:44;;;;;;;1999.90;999.90;;;15.20;99.90;;;;;;5031503;28;20893;-67
2021/08/17 06:47:10;;;;;;;1999.90;999.90;;;15.20;99.90;;;;;;5031783;28;20165;-67
2021/08/17 06:49:35;;;;;;;1999.90;999.90;;;15.20;99.90;;;;;;5031794;28;20199;-67
2021/08/17 06:52:01;;;;;;;1999.90;999.90;;;15.30;99.90;;;;;;5031624;28;20182;-68
2021/08/17 06:54:26;;;;;;;1999.90;999.90;;;15.30;99.90;;;;;;5031526;28;20652;-67
2021/08/17 06:56:52;;;;;;;1999.90;999.90;;;15.40;99.90;;;;;;5035381;28;20171;-68
2021/08/17 06:59:17;;;;;;;1999.90;999.90;;;15.30;99.90;;;;;;5040000;28;20188;-68
2021/08/17 07:01:43;;;;;;;1999.90;999.90;;;15.40;99.90;;;;;;5039430;28;20209;-67
2021/08/17 07:04:09;;;;;;;1999.90;999.90;;;15.30;99.90;;;;;;5039199;28;20193;-70
2021/08/17 07:06:35;;;;;;;1999.90;999.90;;;15.20;99.90;;;;;;5042498;28;20167;-69
2021/08/17 07:09:02;;;;;;;1999.90;999.90;;;15.20;99.90;;;;;;5042513;28;20234;-68
2021/08/17 07:11:29;;;;;;;1999.90;999.90;;;15.30;99.90;;;;;;5041987;28;20784;-68
2021/08/17 07:13:54;;;;;;;1999.90;999.90;;;15.30;99.90;;;;;;5040831;28;20451;-68
2021/08/17 07:16:20;;;;;;;1999.90;999.90;;;15.40;99.90;;;;;;5041711;28;20963;-68
2021/08/17 07:18:46;;;;;;;1999.90;999.90;;;15.50;99.90;;;;;;5042277;28;20173;-68
2021/08/17 07:21:11;;;;;;;1999.90;999.90;;;15.50;99.90;;;;;;5042415;28;20184;-68
2021/08/17 07:23:37;;;;;;;1999.90;999.90;;;15.50;99.90;;;;;;5042727;28;20199;-68
2021/08/17 07:26:03;;;;;;;1999.90;999.90;;;15.50;99.90;;;;;;5041585;28;20177;-68
2021/08/17 07:28:28;;;;;;;1999.90;999.90;;;15.60;99.90;;;;;;5024396;28;20260;-68
2021/08/17 07:30:54;;;;;;;1999.90;999.90;;;15.60;99.90;;;;;;5043560;28;20172;-68
2021/08/17 07:33:20;;;;;;;1999.90;999.90;;;15.60;99.90;;;;;;5024069;28;20671;-68
2021/08/17 07:35:45;;;;;;;1999.90;999.90;;;15.50;99.90;;;;;;5042140;28;20169;-69
2021/08/17 07:38:11;;;;;;;1999.90;999.90;;;15.60;99.90;;;;;;5043155;28;20433;-68
2021/08/17 07:40:37;;;;;;;1999.90;999.90;;;15.50;99.90;;;;;;5042890;28;20178;-68
2021/08/17 07:43:03;;;;;;;1999.90;999.90;;;15.60;99.90;;;;;;5042864;28;20461;-68
2021/08/17 07:45:29;;;;;;;1999.90;999.90;;;15.70;99.90;;;;;;5041698;28;20175;-68
2021/08/17 07:47:54;;;;;;;1999.90;999.90;;;15.70;99.90;;;;;;5042958;28;20475;-67
2021/08/17 07:50:20;;;;;;;1999.90;999.90;;;15.80;99.90;;;;;;5043419;28;20184;-69
2021/08/17 07:52:46;;;;;;;1999.90;999.90;;;15.80;99.90;;;;;;5045012;28;20849;-68
2021/08/17 07:55:15;;;;;;;1999.90;999.90;;;15.90;99.90;;;;;;5043346;28;20199;-69
2021/08/17 07:57:41;;;;;;;1999.90;999.90;;;16.00;99.90;;;;;;5043079;28;20403;-68
2021/08/17 08:00:09;;;;;;;1999.90;999.90;;;16.00;99.90;;;;;;5043838;28;20458;-68
2021/08/17 08:02:35;;;;;;;1999.90;999.90;;;16.10;99.90;;;;;;5044840;28;20206;-67
2021/08/17 08:05:00;;;;;;;1999.90;999.90;;;16.20;99.90;;;;;;5045834;28;20426;-69
2021/08/17 08:07:26;;;;;;;1999.90;999.90;;;16.30;99.90;;;;;;5046157;28;20174;-68
2021/08/17 08:09:52;;;;;;;1999.90;999.90;;;16.40;99.90;;;;;;5045567;28;20175;-68
2021/08/17 08:12:17;;;;;;;1999.90;999.90;;;16.40;99.90;;;;;;5046420;28;20657;-69
2021/08/17 08:14:43;;;;;;;1999.90;999.90;;;16.50;99.90;;;;;;5045332;28;20200;-68
2021/08/17 08:17:09;;;;;;;1999.90;999.90;;;16.50;99.90;;;;;;5015400;28;20544;-69
2021/08/17 08:19:36;;;;;;;1999.90;999.90;;;16.50;99.90;;;;;;5034407;28;20502;-69
2021/08/17 08:22:03;;;;;;;1999.90;999.90;;;16.60;99.90;;;;;;5034375;28;20208;-69
2021/08/17 08:24:29;;;;;;;1999.90;999.90;;;16.60;99.90;;;;;;5033832;28;20792;-69
2021/08/17 08:26:55;;;;;;;1999.90;999.90;;;16.70;99.90;;;;;;5034086;28;20414;-69
2021/08/17 08:29:20;;;;;;;1999.90;999.90;;;16.90;99.90;;;;;;5033965;28;20219;-69
2021/08/17 08:31:46;;;;;;;1999.90;999.90;;;17.10;99.90;;;;;;5034055;28;20182;-68
2021/08/17 08:34:11;;;;;;;1999.90;999.90;;;17.10;99.90;;;;;;5033754;28;20275;-69
2021/08/17 08:36:37;;;;;;;1999.90;999.90;;;17.20;99.90;;;;;;5033827;28;20552;-68
2021/08/17 08:39:03;;;;;;;1999.90;999.90;;;17.20;99.90;;;;;;5033930;28;20226;-69
2021/08/17 08:41:29;;;;;;;1999.90;999.90;;;17.20;99.90;;;;;;5033690;28;20204;-69
2021/08/17 08:43:57;;;;;;;1999.90;999.90;;;17.10;99.90;;;;;;5033505;28;20431;-69
2021/08/17 08:46:22;;;;;;;1999.90;999.90;;;17.00;99.90;;;;;;5033719;28;20169;-69
2021/08/17 08:48:52;;;;;;;1999.90;999.90;;;17.00;99.90;;;;;;5033719;28;20434;-69
2021/08/17 08:51:20;;;;;;;1999.90;999.90;;;17.00;99.90;;;;;;5033700;28;20163;-68
2021/08/17 08:53:47;;;;;;;1999.90;999.90;;;17.10;99.90;;;;;;5061245;23;20567;-66
2021/08/17 08:56:13;;;;;;;1999.90;999.90;;;16.90;99.90;;;;;;5013822;28;20466;-66
2021/08/17 08:58:41;;;;;;;1999.90;999.90;;;16.90;99.90;;;;;;5013762;28;20401;-66
2021/08/17 09:01:09;;;;;;;1999.90;999.90;;;17.00;99.90;;;;;;5013626;28;20400;-66
2021/08/17 09:03:42;;;;;;;1999.90;999.90;;;17.20;99.90;;;;;;5013760;28;20427;-67
2021/08/17 09:06:25;;;;;;;1999.90;999.90;;;17.40;99.90;;;;;;5013613;28;20461;-67
2021/08/17 09:09:13;;;;;;;1999.90;999.90;;;17.30;99.90;;;;;;5013604;28;20449;-67
2021/08/17 09:11:41;;;;;;;1999.90;999.90;;;17.40;99.90;;;;;;5013281;28;20395;-67
2021/08/17 09:14:20;;;;;;;1999.90;999.90;;;17.50;99.90;;;;;;5013239;28;20925;-67
2021/08/17 09:16:47;;;;;;;1999.90;999.90;;;17.50;99.90;;;;;;5013422;28;20595;-67
2021/08/17 09:19:30;;;;;;;1999.90;999.90;;;17.50;99.90;;;;;;5013392;28;20408;-67
2021/08/17 09:22:03;;;;;;;1999.90;999.90;;;17.60;99.90;;;;;;5013215;28;20452;-67
2021/08/17 09:24:32;;;;;;;1999.90;999.90;;;17.60;99.90;;;;;;5013195;28;20464;-67
2021/08/17 09:27:02;;;;;;;1999.90;999.90;;;17.70;99.90;;;;;;5013426;28;20411;-67
2021/08/17 09:29:29;;;;;;;1999.90;999.90;;;17.80;99.90;;;;;;5013108;28;20402;-68
2021/08/17 09:31:57;;;;;;;1999.90;999.90;;;17.80;99.90;;;;;;5013195;28;20412;-67
2021/08/17 09:34:30;;;;;;;1999.90;999.90;;;18.10;99.90;;;;;;5012917;28;20424;-67
2021/08/17 09:36:56;;;;;;;1999.90;999.90;;;18.20;99.90;;;;;;5013153;28;20439;-67
2021/08/17 09:39:31;;;;;;;1999.90;999.90;;;18.30;99.90;;;;;;5012945;28;20410;-67
2021/08/17 09:42:21;;;;;;;1999.90;999.90;;;18.30;99.90;;;;;;5012956;28;20459;-67
2021/08/17 09:45:17;;;;;;;1999.90;999.90;;;18.20;99.90;;;;;;5012897;28;20892;-67
2021/08/17 09:47:53;;;;;;;1999.90;999.90;;;17.90;99.90;;;;;;5008488;28;20814;-67
2021/08/17 09:50:29;;;;;;;1999.90;999.90;;;17.90;99.90;;;;;;5012879;28;20399;-67
2021/08/17 09:53:10;;;;;;;1999.90;999.90;;;17.70;99.90;;;;;;5012881;28;20450;-67
2021/08/17 09:55:48;;;;;;;1999.90;999.90;;;17.70;99.90;;;;;;5012932;28;20414;-67
2021/08/17 09:58:21;;;;;;;1999.90;999.90;;;17.70;99.90;;;;;;5012978;28;20388;-67
2021/08/17 10:00:51;;;;;;;1999.90;999.90;;;17.70;99.90;;;;;;5012728;28;20425;-67
2021/08/17 10:03:18;;;;;;;1999.90;999.90;;;17.80;99.90;;;;;;5012529;28;20461;-67
2021/08/17 10:05:44;;;;;;;1999.90;999.90;;;17.80;99.90;;;;;;5012758;28;20404;-67
2021/08/17 10:08:12;;;;;;;1999.90;999.90;;;17.80;99.90;;;;;;5012846;28;20408;-67
2021/08/17 10:10:40;;;;;;;1999.90;999.90;;;17.80;99.90;;;;;;5012776;28;20415;-67
2021/08/17 10:13:17;;;;;;;1999.90;999.90;;;17.70;99.90;;;;;;5012359;28;20428;-67
2021/08/17 10:15:44;;;;;;;1999.90;999.90;;;17.70;99.90;;;;;;5012480;28;20399;-67
2021/08/17 10:18:12;;;;;;;1999.90;999.90;;;17.80;99.90;;;;;;5012474;28;20411;-67
2021/08/17 10:20:41;;;;;;;1999.90;999.90;;;17.70;99.90;;;;;;5012353;28;20404;-67
2021/08/17 10:23:08;;;;;;;1999.90;999.90;;;17.60;99.90;;;;;;5012203;28;20456;-67
2021/08/17 10:25:50;;;;;;;1999.90;999.90;;;17.50;99.90;;;;;;5012198;28;20407;-67
2021/08/17 10:28:34;;;;;;;1999.90;999.90;;;17.50;99.90;;;;;;5012322;28;20808;-67
2021/08/17 10:31:12;;;;;;;1999.90;999.90;;;17.40;99.90;;;;;;5012254;28;20464;-67
2021/08/17 10:33:49;;;;;;;1999.90;999.90;;;17.50;99.90;;;;;;5012141;28;20521;-67
2021/08/17 10:36:41;;;;;;;1999.90;999.90;;;17.50;99.90;;;;;;5012251;28;20400;-67
2021/08/17 10:39:27;;;;;;;1999.90;999.90;;;17.60;99.90;;;;;;5009922;28;20497;-67
2021/08/17 10:41:54;;;;;;;1999.90;999.90;;;17.60;99.90;;;;;;5017865;28;20972;-67
2021/08/17 10:44:32;;;;;;;1999.90;999.90;;;17.50;99.90;;;;;;5017520;28;20431;-67
2021/08/17 10:47:06;;;;;;;1999.90;999.90;;;17.60;99.90;;;;;;5017778;28;20853;-67
2021/08/17 10:49:41;;;;;;;1999.90;999.90;;;17.60;99.90;;;;;;5017913;28;20400;-67
2021/08/17 10:52:09;;;;;;;1999.90;999.90;;;17.50;99.90;;;;;;5017737;28;20415;-67
2021/08/17 10:54:37;;;;;;;1999.90;999.90;;;17.40;99.90;;;;;;5017416;28;20449;-67
2021/08/17 10:57:22;;;;;;;1999.90;999.90;;;17.40;99.90;;;;;;5017779;28;20411;-67
2021/08/17 10:59:50;;;;;;;1999.90;999.90;;;17.40;99.90;;;;;;5017395;28;20948;-67
2021/08/17 11:02:20;;;;;;;1999.90;999.90;;;17.30;99.90;;;;;;5017669;28;20452;-67
2021/08/17 11:04:48;;;;;;;1999.90;999.90;;;17.30;99.90;;;;;;5017636;28;20407;-67
2021/08/17 11:07:27;;;;;;;1999.90;999.90;;;17.20;99.90;;;;;;5017555;28;20479;-67
2021/08/17 11:09:55;;;;;;;1999.90;999.90;;;17.10;99.90;;;;;;5017943;28;20906;-67
2021/08/17 11:12:30;;;;;;;1999.90;999.90;;;17.20;99.90;;;;;;5017185;28;20416;-67
2021/08/17 11:14:55;;;;;;;1999.90;999.90;;;17.10;99.90;;;;;;5017054;28;20410;-68
2021/08/17 11:17:21;;;;;;;1999.90;999.90;;;17.10;99.90;;;;;;5017465;28;20408;-67
2021/08/17 11:19:50;;;;;;;1999.90;999.90;;;17.10;99.90;;;;;;5017390;28;20210;-67
2021/08/17 11:22:19;;;;;;;1999.90;999.90;;;17.00;99.90;;;;;;5017110;28;20207;-67
2021/08/17 11:24:51;;;;;;;1999.90;999.90;;;17.00;99.90;;;;;;5017014;28;20397;-68
2021/08/17 11:27:22;;;;;;;1999.90;999.90;;;17.00;99.90;;;;;;5017469;28;20411;-68
2021/08/17 11:29:52;;;;;;;1999.90;999.90;;;16.90;99.90;;;;;;5017259;28;20461;-67
2021/08/17 11:32:24;;;;;;;1999.90;999.90;;;16.90;99.90;;;;;;5017637;28;20755;-67
2021/08/17 11:34:50;;;;;;;1999.90;999.90;;;17.00;99.90;;;;;;5017269;28;20403;-67
2021/08/17 11:37:16;;;;;;;1999.90;999.90;;;16.90;99.90;;;;;;5016477;28;20491;-68
2021/08/17 11:39:54;;;;;;;1999.90;999.90;;;17.00;99.90;;;;;;5016806;28;20204;-68
2021/08/17 11:42:24;;;;;;;1999.90;999.90;;;17.00;99.90;;;;;;5016608;28;21019;-68
2021/08/17 11:44:58;;;;;;;1999.90;999.90;;;17.00;99.90;;;;;;5016111;28;20457;-68
2021/08/17 11:47:25;;;;;;;1999.90;999.90;;;17.00;99.90;;;;;;5016817;28;20402;-68
2021/08/17 11:49:56;;;;;;;1999.90;999.90;;;17.00;99.90;;;;;;5017248;28;20407;-68
2021/08/17 11:52:43;;;;;;;1999.90;999.90;;;17.10;99.90;;;;;;5013655;28;20503;-68
2021/08/17 11:55:13;;;;;;;1999.90;999.90;;;17.10;99.90;;;;;;5013046;28;20427;-68
2021/08/17 11:57:46;;;;;;;1999.90;999.90;;;17.10;99.90;;;;;;5013489;28;20404;-68
2021/08/17 12:00:13;;;;;;;1999.90;999.90;;;17.00;99.90;;;;;;5013121;28;20849;-68